AirNav   TITAN Aviation Fuels
 
 491 users online  

87NC Brocks Airport
Roseboro, North Carolina, USA

GOING TO ROSEBORO?


FAA INFORMATION EFFECTIVE 03 NOVEMBER 2022

Location

FAA Identifier: 87NC
Lat/Long: 34-54-58.0000N 078-36-01.0000W
34-54.966667N 078-36.016667W
34.9161111,-78.6002778
(estimated)
Elevation: 120 ft. / 37 m (estimated)
From city: 4 miles W of ROSEBORO, NC
Time zone: UTC -5 (UTC -4 during Daylight Saving Time)
Zip code: 28318

Airport Operations

Airport use: Private use. Permission required prior to landing
Activation date: 08/2011
Control tower: no
ARTCC: WASHINGTON CENTER
FSS: RALEIGH FLIGHT SERVICE STATION
Attendance: UNATNDD
Wind indicator: yes
Segmented circle: no

Airport Communications

WX AWOS-3 at CTZ (12 nm E): 119.125 (910-592-7488)
WX ASOS at FAY (14 nm W): 121.25 (910-484-1546)
WX AWOS-3P at EYF (19 nm S): 119.475 (910-862-9982)

Nearby radio navigation aids

VOR radial/distance  VOR name  Freq  Var
FAYr111/14.1FAYETTEVILLE VOR/DME114.8504W

 
NDB name  Hdg/Dist  Freq  Var  ID
CLINTON262/12.241209WCTZ -.-. - --..
HARNETT181/31.241708WHQT .... --.- -
CAMP015/39.022707WCPC -.-. .--. -.-.

Airport Services

Runway Information

Runway 15/33

Dimensions: 2100 x 90 ft. / 640 x 27 m
Surface: turf, in good condition
RUNWAY 15  RUNWAY 33
Traffic pattern: leftleft
Obstructions: 45 ft. trees, 100 ft. from runway45 ft. trees, 100 ft. from runway

Airport Ownership and Management from official FAA records

Ownership: Privately-owned
Owner: GARY BROCK
10878 NC HWY 210 S
ROSEBORO, NC 28382
Phone 910-531-3670
Manager: GARY BROCK
10878 NC HWY 210 S
ROSEBORO, NC 28382
Phone 910-531-3670

Airport Operational Statistics

Aircraft based on the field: 1
Single engine airplanes: 1
    

Additional Remarks

FOR CD CTC WASHINGTON ARTCC AT 703-771-3587.

Instrument Procedures

There are no published instrument procedures at 87NC.

Some nearby airports with instrument procedures:

KCTZ - Clinton-Sampson County Airport (12 nm E)
KFAY - Fayetteville Regional Airport/Grannis Field (14 nm W)
KEYF - Curtis L Brown Jr. Field Airport (19 nm S)
KFBG - Simmons Army Airfield (21 nm NW)
KPOB - Pope Army Airfield (25 nm NW)
 
Loc | Ops | Rwys | IFR | FBO | Links
Com | Nav | Svcs | Stats | Notes
Aerial photo
No photo
 
Airport distance calculator
Flying to Brocks Airport? Find the distance to fly.

From to 87NC

Sunrise and sunset
Times for 28-Nov-2022
 Local
(UTC-5)
 Zulu
(UTC)
Morning civil twilight06:3511:35
Sunrise07:0212:02
Sunset17:0322:03
Evening civil twilight17:3022:30

Current date and time
Zulu (UTC)  28-Nov-2022 07:27:01
Local (UTC-5)  28-Nov-2022 02:27:01
 
METAR
KCTZ 
12nm E 
280715Z AUTO 25006KT 10SM CLR 15/10 A2976 RMK AO2 T01520095
KFAY 
14nm W 
280653Z 25010KT 10SM CLR 15/08 A2975 RMK AO2 SLP068 T01500078
KEYF 
19nm S 
280715Z AUTO 24008KT 10SM CLR 15/08 A2978 RMK AO2 T01520082
KFBG 
20nm NW 
280655Z AUTO 25011KT 10SM CLR 15/07 A2973 RMK AO2 SLP069 T01500070 $
TAF
KFAY 
14nm W 
280523Z 2806/2906 24007KT P6SM SKC FM281500 27010KT P6SM SCT050 FM282000 30006KT P6SM SKC
NOTAMs
Click for the latest NOTAMs
NOTAMs are issued by the DoD/FAA and will open in a separate window not controlled by AirNav.

 

 
 

Would you like to see your business listed on this page?

 If your business provides an interesting product or service to pilots, flight crews, aircraft, or users of the Brocks Airport, you should consider listing it here.  To start the listing process, click on the button below
 
Add a business
 

Other Pages about Brocks Airport

Update a link
 
Copyright © AirNav, LLC. All rights reserved. Privacy Policy  Contact